Time;durP1;ratioP1;P1;durP2;ratioP2;P2;SDS_P1;SDS_P2;PMS_P1;PMS_P2;Temp;Humidity;BMP_temperature;BMP_pressure;BME280_temperature;BME280_humidity;BME280_pressure;Samples;Min_cycle;Max_cycle;Signal;HPM_P1;HPM_P2
2024/04/05 00:02:09;;;;;;;9.55;2.05;;;;;;;11.61;61.98;99615.19;10427746;28;20035;-62
2024/04/05 00:07:10;;;;;;;2.17;0.90;;;;;;;11.71;61.86;99607.53;10432182;28;20600;-62
2024/04/05 00:12:11;;;;;;;6.68;1.23;;;;;;;11.78;61.82;99607.00;10432389;28;20045;-62
2024/04/05 00:17:11;;;;;;;4.68;1.30;;;;;;;11.66;62.03;99594.75;10434564;28;20044;-62
2024/04/05 00:22:12;;;;;;;2.53;1.25;;;;;;;11.71;61.76;99597.03;10433650;28;20041;-62
2024/04/05 00:27:14;;;;;;;2.72;1.17;;;;;;;11.73;61.73;99598.63;10431244;28;20045;-62
2024/04/05 00:32:15;;;;;;;7.78;1.35;;;;;;;11.65;61.87;99592.22;10417378;28;20037;-62
2024/04/05 00:37:16;;;;;;;4.32;1.45;;;;;;;11.53;61.96;99595.69;10432637;28;20385;-62
2024/04/05 00:42:18;;;;;;;7.45;2.05;;;;;;;11.40;62.26;99593.09;10414840;28;20040;-62
2024/04/05 00:47:19;;;;;;;2.85;1.65;;;;;;;11.28;62.51;99600.00;10430482;28;20049;-62
2024/04/05 00:52:20;;;;;;;3.28;1.17;;;;;;;11.28;62.87;99593.91;10430456;28;20446;-62
2024/04/05 00:57:21;;;;;;;5.75;1.65;;;;;;;11.45;62.49;99592.78;10428929;28;20041;-62
2024/04/05 01:02:22;;;;;;;2.78;1.30;;;;;;;11.58;62.76;99604.91;10430034;28;20424;-62
2024/04/05 01:07:23;;;;;;;5.00;1.80;;;;;;;11.70;62.57;99592.78;10416009;28;20060;-62
2024/04/05 01:12:24;;;;;;;2.70;1.40;;;;;;;11.76;62.76;99600.19;10417159;28;20049;-62
2024/04/05 01:17:25;;;;;;;6.88;2.10;;;;;;;11.79;62.65;99602.59;10414783;28;20515;-62
2024/04/05 01:22:44;;;;;;;3.35;1.63;;;;;;;11.76;62.84;99601.03;10413085;28;20401;-62
2024/04/05 01:27:45;;;;;;;3.40;1.70;;;;;;;11.73;62.68;99597.78;10414188;28;20433;-62
2024/04/05 01:32:58;;;;;;;2.08;1.17;;;;;;;11.66;62.79;99588.69;10414716;28;20044;-62
2024/04/05 01:37:59;;;;;;;2.22;1.33;;;;;;;11.53;62.83;99587.84;10415280;28;20056;-62
2024/04/05 01:43:01;;;;;;;4.70;1.40;;;;;;;11.34;63.05;99577.78;10444876;28;20041;-62
2024/04/05 01:48:02;;;;;;;6.45;1.60;;;;;;;11.23;63.18;99570.66;10424126;28;20041;-62
2024/04/05 01:53:03;;;;;;;5.43;1.50;;;;;;;10.89;63.77;99581.69;10396749;28;20048;-62
2024/04/05 01:58:04;;;;;;;2.55;1.33;;;;;;;10.84;64.32;99589.03;10421010;28;20592;-62
2024/04/05 02:03:06;;;;;;;3.40;1.50;;;;;;;11.00;64.15;99594.91;10417173;28;20168;-62
2024/04/05 02:08:07;;;;;;;13.30;3.13;;;;;;;11.07;64.02;99587.53;10422049;28;20331;-62
2024/04/05 02:13:08;;;;;;;3.25;1.67;;;;;;;11.03;64.05;99584.22;10423240;28;20221;-62
2024/04/05 02:18:10;;;;;;;5.80;1.73;;;;;;;10.95;64.28;99594.38;10429611;28;20052;-63
2024/04/05 02:23:11;;;;;;;5.75;1.88;;;;;;;11.11;63.96;99602.91;10414309;28;20231;-62
2024/04/05 02:28:12;;;;;;;6.03;1.48;;;;;;;11.10;64.09;99606.47;10430110;28;20063;-62
2024/04/05 02:33:13;;;;;;;2.53;1.17;;;;;;;11.07;64.39;99611.09;10431738;28;20056;-62
2024/04/05 02:38:14;;;;;;;2.80;1.40;;;;;;;11.11;64.30;99604.72;10430742;28;20164;-62
2024/04/05 02:43:15;;;;;;;2.65;1.60;;;;;;;11.16;64.27;99608.69;10430862;28;20544;-62
2024/04/05 02:48:16;;;;;;;1.92;1.42;;;;;;;11.12;64.24;99617.69;10430900;28;20045;-62
2024/04/05 02:53:17;;;;;;;5.80;1.75;;;;;;;11.01;64.19;99607.03;10430950;28;20331;-62
2024/04/05 02:58:18;;;;;;;6.57;2.03;;;;;;;10.98;64.20;99612.50;10430539;28;20049;-62
2024/04/05 03:03:19;;;;;;;5.15;1.63;;;;;;;10.93;64.41;99619.81;10413696;28;20043;-62
2024/04/05 03:08:20;;;;;;;3.53;1.20;;;;;;;11.03;64.65;99614.81;10430342;28;20421;-62
2024/04/05 03:13:21;;;;;;;5.22;1.52;;;;;;;11.11;64.20;99618.59;10413659;28;20040;-62
2024/04/05 03:18:22;;;;;;;3.95;2.05;;;;;;;10.99;64.31;99608.94;10426336;28;20041;-62
2024/04/05 03:23:23;;;;;;;5.13;1.65;;;;;;;10.67;64.46;99604.13;10414661;28;20049;-62
2024/04/05 03:28:24;;;;;;;4.72;1.58;;;;;;;10.24;65.21;99612.13;10422526;28;20103;-62
2024/04/05 03:33:25;;;;;;;4.57;1.98;;;;;;;10.05;65.81;99616.00;10418738;28;20045;-62
2024/04/05 03:38:26;;;;;;;3.42;1.75;;;;;;;9.98;65.89;99612.09;10417648;28;20310;-62
2024/04/05 03:43:27;;;;;;;4.45;2.00;;;;;;;10.10;65.84;99621.75;10418388;28;20500;-62
2024/04/05 03:48:28;;;;;;;4.53;1.98;;;;;;;10.14;65.62;99629.31;10418580;28;20335;-62
2024/04/05 03:53:29;;;;;;;3.40;1.55;;;;;;;10.30;65.43;99632.66;10417410;28;20048;-62
2024/04/05 03:58:30;;;;;;;4.57;1.63;;;;;;;10.48;65.31;99625.44;10416267;28;20037;-62
2024/04/05 04:03:32;;;;;;;4.82;1.50;;;;;;;10.58;65.29;99617.81;10419620;28;20515;-63
2024/04/05 04:08:33;;;;;;;2.83;1.40;;;;;;;10.58;65.41;99623.91;10399992;28;20045;-63
2024/04/05 04:13:34;;;;;;;6.38;2.17;;;;;;;10.65;65.38;99626.94;10398841;28;20464;-62
2024/04/05 04:18:36;;;;;;;2.83;1.45;;;;;;;10.66;65.52;99636.47;10420059;28;20049;-63
2024/04/05 04:23:37;;;;;;;5.07;1.83;;;;;;;10.75;65.43;99625.41;10410576;28;20041;-63
2024/04/05 04:28:38;;;;;;;3.35;1.45;;;;;;;10.80;65.35;99624.19;10416597;28;20537;-63
2024/04/05 04:33:39;;;;;;;3.47;1.52;;;;;;;10.76;65.42;99625.31;10417764;28;20341;-62
2024/04/05 04:38:40;;;;;;;5.38;2.22;;;;;;;10.80;65.32;99624.19;10417429;28;20049;-62
2024/04/05 04:43:44;;;;;;;4.15;2.15;;;;;;;10.82;65.35;99632.75;10433155;28;20051;-63
2024/04/05 04:48:46;;;;;;;16.40;7.88;;;;;;;10.84;65.47;99645.72;10422541;28;20067;-63
2024/04/05 04:53:47;;;;;;;5.95;2.28;;;;;;;10.73;65.50;99633.34;10415313;28;20049;-63
2024/04/05 04:58:49;;;;;;;3.42;1.50;;;;;;;10.73;65.75;99620.28;10415685;28;20076;-63
2024/04/05 05:03:52;;;;;;;2.35;1.50;;;;;;;10.82;65.55;99611.00;10414073;28;20087;-63
2024/04/05 05:08:53;;;;;;;4.20;1.70;;;;;;;10.87;65.67;99614.13;10414605;28;20048;-63
2024/04/05 05:13:54;;;;;;;5.00;1.90;;;;;;;10.89;65.71;99607.84;10414352;28;20143;-63
2024/04/05 05:18:55;;;;;;;3.08;1.40;;;;;;;10.81;65.42;99601.44;10416581;28;20059;-62
2024/04/05 05:23:57;;;;;;;5.30;1.35;;;;;;;10.85;65.58;99605.53;10398670;28;20385;-63
2024/04/05 05:28:58;;;;;;;5.53;2.10;;;;;;;10.86;65.41;99609.84;10395372;28;20064;-63
2024/04/05 05:33:59;;;;;;;4.50;1.88;;;;;;;10.75;65.82;99612.31;10414579;28;20041;-63
2024/04/05 05:39:01;;;;;;;2.97;1.60;;;;;;;10.73;65.94;99607.19;10413188;28;20102;-62
2024/04/05 05:44:02;;;;;;;5.05;2.10;;;;;;;10.84;66.10;99607.34;10402857;28;20476;-63
2024/04/05 05:49:03;;;;;;;4.40;1.95;;;;;;;11.10;65.64;99624.78;10414515;28;20196;-62
2024/04/05 05:54:04;;;;;;;6.80;2.15;;;;;;;11.16;65.37;99603.44;10417172;28;20437;-62
2024/04/05 05:59:05;;;;;;;4.85;1.77;;;;;;;11.24;65.45;99613.41;10414393;28;20053;-62
2024/04/05 06:04:07;;;;;;;4.13;2.00;;;;;;;11.39;64.98;99619.38;10412837;28;20045;-62
2024/04/05 06:09:08;;;;;;;6.15;2.38;;;;;;;11.50;64.83;99624.72;10397245;28;20052;-62
2024/04/05 06:14:09;;;;;;;6.47;1.83;;;;;;;11.63;64.87;99636.88;10415819;28;20041;-62
2024/04/05 06:19:11;;;;;;;8.55;1.85;;;;;;;11.68;64.83;99641.81;10412499;28;20659;-63
2024/04/05 06:24:12;;;;;;;5.93;2.15;;;;;;;11.65;64.83;99639.38;10416300;28;20710;-63
2024/04/05 06:29:13;;;;;;;3.20;1.63;;;;;;;11.63;65.14;99644.72;10412661;28;20095;-63
2024/04/05 06:34:14;;;;;;;4.72;1.50;;;;;;;11.85;64.69;99633.59;10422958;28;20398;-63
2024/04/05 06:39:15;;;;;;;7.93;4.30;;;;;;;12.06;64.30;99625.09;10427329;28;20064;-62
2024/04/05 06:44:17;;;;;;;9.40;1.88;;;;;;;12.28;64.33;99608.69;10427081;28;20048;-64
2024/04/05 06:49:18;;;;;;;9.30;2.78;;;;;;;12.58;64.02;99595.13;10421459;28;20044;-63
2024/04/05 06:54:19;;;;;;;4.00;2.38;;;;;;;12.80;63.60;99601.31;10426967;28;20409;-64
2024/04/05 06:59:19;;;;;;;3.17;1.90;;;;;;;12.95;63.52;99610.69;10397241;28;20118;-63
2024/04/05 07:04:23;;;;;;;4.43;1.35;;;;;;;13.18;63.13;99622.09;10431098;28;20497;-63
2024/04/05 07:09:25;;;;;;;3.72;1.65;;;;;;;13.38;63.01;99608.28;10403035;28;20528;-63
2024/04/05 07:14:26;;;;;;;9.63;2.83;;;;;;;13.58;62.87;99596.28;10421768;28;20098;-63
2024/04/05 07:19:27;;;;;;;10.00;2.72;;;;;;;13.53;62.64;99583.50;10402099;28;20436;-63
2024/04/05 07:24:28;;;;;;;4.80;1.88;;;;;;;13.60;62.60;99582.06;10401480;28;20045;-63
2024/04/05 07:29:30;;;;;;;5.00;2.20;;;;;;;13.62;62.51;99584.56;10415512;28;20056;-63
2024/04/05 07:34:31;;;;;;;4.20;1.75;;;;;;;13.73;62.34;99585.44;10426885;28;20041;-63
2024/04/05 07:39:38;;;;;;;4.30;2.08;;;;;;;13.68;62.18;99565.69;10428516;28;20171;-63
2024/04/05 07:44:39;;;;;;;3.55;1.50;;;;;;;13.71;62.71;99557.59;10428833;28;20099;-63
2024/04/05 07:49:40;;;;;;;3.55;1.70;;;;;;;14.09;61.77;99568.53;10424819;28;20055;-63
2024/04/05 07:54:43;;;;;;;17.20;2.63;;;;;;;14.32;61.77;99570.16;10429246;28;20037;-61
2024/04/05 07:59:49;;;;;;;5.43;1.92;;;;;;;14.77;61.11;99568.22;10429109;28;20060;-60
2024/04/05 08:04:50;;;;;;;6.70;3.13;;;;;;;15.54;60.07;99561.66;10415174;28;20382;-61
2024/04/05 08:09:53;;;;;;;4.13;2.05;;;;;;;16.10;59.23;99560.19;10424655;28;20040;-61
2024/04/05 08:14:55;;;;;;;4.65;2.10;;;;;;;16.59;58.57;99547.94;10428517;28;20050;-60
2024/04/05 08:19:58;;;;;;;3.63;1.88;;;;;;;16.90;57.60;99530.94;10428752;28;20478;-61
2024/04/05 08:25:07;;;;;;;5.78;1.90;;;;;;;17.11;56.93;99522.84;10430755;28;20526;-61
2024/04/05 08:30:12;;;;;;;4.90;1.65;;;;;;;17.39;56.04;99503.44;10429240;28;20052;-61
2024/04/05 08:35:13;;;;;;;4.07;1.60;;;;;;;17.47;56.42;99498.28;10429556;28;20548;-61
2024/04/05 08:40:14;;;;;;;5.28;1.90;;;;;;;17.77;56.05;99496.19;10420828;28;20460;-61
2024/04/05 08:45:16;;;;;;;4.85;1.63;;;;;;;17.93;55.23;99490.25;10406615;28;20095;-60
2024/04/05 08:50:18;;;;;;;4.30;1.52;;;;;;;18.17;55.28;99494.97;10418037;28;20702;-60
2024/04/05 08:55:20;;;;;;;8.18;2.53;;;;;;;18.38;55.23;99499.00;10430307;28;20049;-60
2024/04/05 09:00:24;;;;;;;6.15;1.40;;;;;;;18.21;55.17;99497.19;10428012;28;20060;-60
2024/04/05 09:05:25;;;;;;;6.30;2.00;;;;;;;18.35;54.79;99494.03;10445726;28;20679;-61
2024/04/05 09:10:26;;;;;;;3.83;1.98;;;;;;;18.30;53.95;99471.66;10427681;28;20465;-61
2024/04/05 09:15:29;;;;;;;2.38;1.13;;;;;;;18.22;53.47;99474.22;10429185;28;20045;-61
2024/04/05 09:20:30;;;;;;;1.77;1.02;;;;;;;18.41;52.92;99458.16;10427175;28;20049;-61
2024/04/05 09:25:35;;;;;;;2.10;1.00;;;;;;;18.64;51.56;99469.94;10427999;28;20063;-61
2024/04/05 09:30:36;;;;;;;2.15;1.00;;;;;;;18.58;50.95;99467.91;10412765;28;20514;-61
2024/04/05 09:35:38;;;;;;;1.15;0.73;;;;;;;19.11;49.71;99458.03;10431517;28;20040;-61
2024/04/05 09:40:42;;;;;;;2.78;0.90;;;;;;;19.22;47.32;99446.31;10428410;28;20092;-61
2024/04/05 09:45:47;;;;;;;1.88;0.98;;;;;;;19.41;45.69;99443.44;10411693;28;20041;-61
2024/04/05 09:50:49;;;;;;;1.23;0.70;;;;;;;19.46;45.31;99414.59;10427767;28;20037;-61
2024/04/05 09:55:53;;;;;;;1.92;0.80;;;;;;;19.77;46.08;99420.16;10426623;28;20386;-61
2024/04/05 10:00:55;;;;;;;1.77;0.88;;;;;;;20.08;44.93;99413.28;10426310;28;20515;-61
2024/04/05 10:05:56;;;;;;;0.95;0.63;;;;;;;20.37;44.51;99403.03;10427174;28;20044;-61
2024/04/05 10:11:14;;;;;;;2.10;0.70;;;;;;;20.45;43.38;99404.84;10427678;28;20075;-61
2024/04/05 10:16:24;;;;;;;0.88;0.70;;;;;;;20.57;42.48;99400.84;10409444;28;20060;-61
2024/04/05 10:21:32;;;;;;;2.05;0.90;;;;;;;20.51;41.62;99406.81;10409210;28;20528;-60
2024/04/05 10:26:34;;;;;;;2.72;0.68;;;;;;;20.58;43.88;99403.34;10423056;28;20045;-60
2024/04/05 10:31:38;;;;;;;1.70;1.00;;;;;;;20.64;44.27;99425.78;10380913;28;20512;-60
2024/04/05 10:36:40;;;;;;;2.88;1.05;;;;;;;20.11;43.87;99423.59;10432053;28;20098;-60
2024/04/05 10:41:41;;;;;;;2.25;1.08;;;;;;;20.24;44.06;99415.97;10421687;28;20476;-60
2024/04/05 10:46:45;;;;;;;2.38;0.90;;;;;;;20.14;43.96;99407.31;10437217;28;20037;-60
2024/04/05 10:51:47;;;;;;;2.95;0.80;;;;;;;20.43;44.04;99374.97;10421162;28;20049;-60
2024/04/05 10:56:48;;;;;;;1.52;0.85;;;;;;;20.81;43.68;99371.59;10436588;28;20110;-60
2024/04/05 11:01:49;;;;;;;1.23;0.88;;;;;;;20.63;43.59;99361.19;10436062;28;20060;-60
2024/04/05 11:06:59;;;;;;;1.90;0.73;;;;;;;20.50;43.31;99354.72;10420412;28;20037;-60
2024/04/05 11:12:00;;;;;;;3.95;1.27;;;;;;;20.46;44.59;99346.22;10436165;28;20040;-61
2024/04/05 11:17:01;;;;;;;1.90;1.10;;;;;;;20.20;45.13;99322.53;10435102;28;20048;-60
2024/04/05 11:22:05;;;;;;;2.58;1.30;;;;;;;20.11;45.43;99328.03;10435421;28;20065;-61
2024/04/05 11:27:06;;;;;;;3.03;1.40;;;;;;;19.88;46.11;99358.88;10435631;28;20072;-61
2024/04/05 11:32:07;;;;;;;2.95;1.77;;;;;;;19.62;46.64;99366.09;10418737;28;20044;-61
2024/04/05 11:37:08;;;;;;;1.92;0.80;;;;;;;19.42;47.33;99318.63;10435634;28;21031;-61
2024/04/05 11:42:10;;;;;;;1.75;0.85;;;;;;;19.61;47.65;99314.00;10435946;28;20045;-61
2024/04/05 11:47:11;;;;;;;2.35;1.05;;;;;;;19.97;47.23;99320.72;10435158;28;20504;-61
2024/04/05 11:52:12;;;;;;;2.90;1.15;;;;;;;20.61;46.59;99341.91;10418782;28;20058;-60
2024/04/05 11:57:16;;;;;;;2.17;0.90;;;;;;;21.08;45.14;99323.31;10417891;28;20079;-61
2024/04/05 12:02:19;;;;;;;2.15;0.80;;;;;;;21.13;44.97;99314.84;10434316;28;20512;-61
2024/04/05 12:07:20;;;;;;;1.25;0.73;;;;;;;21.37;45.00;99312.06;10411741;28;20124;-60
2024/04/05 12:12:21;;;;;;;2.95;1.42;;;;;;;21.29;44.66;99322.72;10431853;28;20088;-60
2024/04/05 12:17:22;;;;;;;2.15;1.00;;;;;;;21.11;43.75;99335.44;10434208;28;20098;-60
2024/04/05 12:22:23;;;;;;;2.13;0.95;;;;;;;20.87;44.07;99321.25;10433295;28;20049;-60
2024/04/05 12:27:24;;;;;;;1.15;0.70;;;;;;;20.75;43.12;99338.56;10416777;28;20088;-60
2024/04/05 12:32:25;;;;;;;3.13;1.45;;;;;;;20.23;42.23;99348.72;10431204;28;20060;-60
2024/04/05 12:37:27;;;;;;;1.25;1.00;;;;;;;19.97;42.14;99352.59;10430362;28;20049;-60
2024/04/05 12:42:28;;;;;;;2.00;0.90;;;;;;;19.92;42.74;99352.22;10399695;28;20040;-60
2024/04/05 12:47:29;;;;;;;1.77;0.82;;;;;;;20.17;42.46;99345.94;10416569;28;20053;-60
2024/04/05 12:52:30;;;;;;;2.33;1.00;;;;;;;20.12;42.57;99356.22;10432600;28;20053;-60
2024/04/05 12:57:32;;;;;;;1.63;0.90;;;;;;;19.91;42.81;99382.44;10431448;28;20045;-60
2024/04/05 13:02:33;;;;;;;2.30;0.90;;;;;;;19.69;42.98;99397.09;10431846;28;20131;-60
2024/04/05 13:07:34;;;;;;;1.23;0.90;;;;;;;19.68;43.31;99410.53;10431476;28;20049;-60
2024/04/05 13:12:35;;;;;;;2.25;1.38;;;;;;;19.49;43.40;99416.94;10397721;28;20524;-59
2024/04/05 13:17:36;;;;;;;0.85;0.80;;;;;;;19.36;43.54;99417.38;10414438;28;20236;-59
2024/04/05 13:22:37;;;;;;;2.88;1.10;;;;;;;19.60;43.41;99418.47;10415159;28;20041;-61
2024/04/05 13:27:38;;;;;;;1.00;0.82;;;;;;;19.63;43.00;99426.09;10430446;28;20049;-59
2024/04/05 13:32:39;;;;;;;0.88;0.68;;;;;;;19.73;42.97;99421.47;10427826;28;20429;-59
2024/04/05 13:37:40;;;;;;;2.30;1.17;;;;;;;19.95;42.96;99413.78;10394739;28;20072;-59
2024/04/05 13:42:44;;;;;;;3.28;1.05;;;;;;;20.05;42.41;99409.13;10425855;28;20102;-59
2024/04/05 13:47:45;;;;;;;1.65;0.90;;;;;;;20.16;41.64;99397.38;10428150;28;20171;-59
2024/04/05 13:52:46;;;;;;;1.02;0.77;;;;;;;20.15;41.62;99372.63;10411050;28;20493;-59
2024/04/05 13:57:48;;;;;;;1.83;0.98;;;;;;;20.52;41.36;99358.03;10410758;28;20041;-59
2024/04/05 14:02:49;;;;;;;2.80;1.08;;;;;;;20.81;41.33;99392.84;10411126;28;20183;-59
2024/04/05 14:07:50;;;;;;;0.90;0.60;;;;;;;21.21;40.58;99398.06;10410555;28;20083;-59
2024/04/05 14:12:51;;;;;;;1.83;0.80;;;;;;;21.22;39.00;99385.59;10426170;28;20096;-59
2024/04/05 14:17:52;;;;;;;2.55;0.73;;;;;;;20.97;39.95;99387.50;10411039;28;20063;-60
2024/04/05 14:22:53;;;;;;;3.53;0.70;;;;;;;20.66;40.43;99387.41;10426865;28;20073;-61
2024/04/05 14:27:55;;;;;;;1.30;0.90;;;;;;;20.75;40.62;99396.19;10410287;28;20103;-60
2024/04/05 14:32:56;;;;;;;0.90;0.68;;;;;;;21.09;39.82;99394.94;10424573;28;20055;-61
2024/04/05 14:37:57;;;;;;;1.48;0.80;;;;;;;21.11;39.69;99392.09;10422862;28;20033;-61
2024/04/05 14:42:58;;;;;;;1.70;0.50;;;;;;;21.07;39.49;99380.16;10409498;28;20429;-61
2024/04/05 14:47:59;;;;;;;1.30;0.50;;;;;;;20.97;38.71;99395.47;10409711;28;20646;-61
2024/04/05 14:53:00;;;;;;;0.47;0.47;;;;;;;21.38;39.35;99374.91;10409474;28;20041;-61
2024/04/05 14:58:01;;;;;;;1.17;0.75;;;;;;;21.64;39.12;99354.16;10408789;28;20052;-61
2024/04/05 15:03:03;;;;;;;1.73;1.00;;;;;;;20.98;39.01;99371.41;10426870;28;20535;-61
2024/04/05 15:08:04;;;;;;;0.50;0.50;;;;;;;20.69;39.69;99360.50;10408055;28;20420;-61
2024/04/05 15:13:05;;;;;;;1.58;0.63;;;;;;;20.46;39.92;99354.19;10410395;28;20056;-61
2024/04/05 15:18:06;;;;;;;0.90;0.52;;;;;;;20.37;40.12;99355.22;10428085;28;20052;-61
2024/04/05 15:23:07;;;;;;;1.20;0.85;;;;;;;19.90;40.08;99392.22;10436422;28;20045;-61
2024/04/05 15:28:08;;;;;;;0.75;0.50;;;;;;;19.90;40.32;99388.72;10437388;28;20135;-61
2024/04/05 15:33:09;;;;;;;1.77;0.75;;;;;;;19.96;39.93;99394.22;10437111;28;20075;-61
2024/04/05 15:38:10;;;;;;;0.70;0.70;;;;;;;19.58;40.66;99357.63;10433332;28;20137;-61
2024/04/05 15:43:11;;;;;;;2.17;0.70;;;;;;;19.95;40.47;99373.16;10416071;28;20045;-61
2024/04/05 15:48:12;;;;;;;2.47;0.63;;;;;;;19.87;39.59;99381.06;10430884;28;20509;-61
2024/04/05 15:53:13;;;;;;;0.98;0.63;;;;;;;20.18;40.45;99406.00;10417066;28;20057;-61
2024/04/05 15:58:17;;;;;;;1.92;0.70;;;;;;;20.27;40.54;99419.09;10431576;28;20072;-61
2024/04/05 16:03:18;;;;;;;1.00;0.60;;;;;;;20.14;41.04;99428.56;10431108;28;20520;-61
2024/04/05 16:08:19;;;;;;;2.05;0.90;;;;;;;19.79;41.12;99439.41;10432691;28;20041;-61
2024/04/05 16:13:21;;;;;;;1.13;0.52;;;;;;;19.76;41.23;99431.78;10417288;28;20485;-61
2024/04/05 16:18:22;;;;;;;2.75;1.05;;;;;;;19.76;41.33;99432.63;10435126;28;20055;-61
2024/04/05 16:23:23;;;;;;;1.65;0.68;;;;;;;19.58;41.33;99431.06;10435412;28;20069;-61
2024/04/05 16:28:24;;;;;;;0.93;0.68;;;;;;;19.33;41.71;99433.63;10434401;28;20075;-61
2024/04/05 16:33:31;;;;;;;0.60;0.55;;;;;;;19.27;41.80;99438.72;10424996;28;20124;-61
2024/04/05 16:38:39;;;;;;;1.30;0.70;;;;;;;19.11;42.36;99454.56;10432786;28;20451;-61
2024/04/05 16:43:40;;;;;;;0.50;0.50;;;;;;;19.05;42.54;99458.69;10429469;28;20231;-61
2024/04/05 16:48:43;;;;;;;1.33;0.73;;;;;;;19.02;42.61;99474.88;10431956;28;20041;-61
2024/04/05 16:53:47;;;;;;;2.55;0.73;;;;;;;19.01;42.76;99475.00;10432292;28;20124;-61
2024/04/05 16:58:49;;;;;;;1.83;0.90;;;;;;;19.04;42.69;99475.56;10431582;28;20493;-62
2024/04/05 17:03:52;;;;;;;1.20;0.75;;;;;;;18.85;43.14;99488.97;10431746;28;20365;-64
2024/04/05 17:08:54;;;;;;;1.10;0.98;;;;;;;18.81;43.51;99498.19;10422853;28;20048;-65
2024/04/05 17:13:55;;;;;;;1.60;0.70;;;;;;;18.66;43.68;99507.72;10427658;28;20053;-65
2024/04/05 17:18:57;;;;;;;2.00;0.93;;;;;;;18.55;43.76;99526.47;10410264;28;20049;-66
2024/04/05 17:23:58;;;;;;;2.42;0.75;;;;;;;18.48;44.31;99522.78;10400474;28;20053;-64
2024/04/05 17:28:59;;;;;;;2.00;0.95;;;;;;;18.43;44.56;99531.16;10432591;28;20075;-66
2024/04/05 17:34:00;;;;;;;1.08;0.60;;;;;;;18.41;44.57;99538.44;10428907;28;20702;-64
2024/04/05 17:39:01;;;;;;;1.20;0.70;;;;;;;18.36;44.82;99540.69;10426351;28;20523;-64
2024/04/05 17:44:07;;;;;;;3.97;0.80;;;;;;;18.27;45.19;99543.41;10426385;28;20486;-64
2024/04/05 17:49:08;;;;;;;3.00;0.70;;;;;;;18.21;45.30;99557.25;10426091;28;20383;-64
2024/04/05 17:54:09;;;;;;;2.85;1.00;;;;;;;18.20;45.74;99558.22;10427748;28;20041;-64
2024/04/05 17:59:11;;;;;;;1.15;0.70;;;;;;;18.15;45.71;99563.09;10411112;28;20405;-66
2024/04/05 18:04:12;;;;;;;0.75;0.70;;;;;;;18.14;45.67;99564.06;10426770;28;20056;-67
2024/04/05 18:09:16;;;;;;;1.92;0.95;;;;;;;18.28;45.86;99574.22;10411943;28;20124;-66
2024/04/05 18:14:17;;;;;;;0.93;0.80;;;;;;;18.32;45.68;99572.94;10430468;28;20048;-65
2024/04/05 18:19:20;;;;;;;1.85;1.10;;;;;;;18.20;46.09;99582.06;10426251;28;20044;-65
2024/04/05 18:24:21;;;;;;;1.20;0.85;;;;;;;18.04;46.24;99593.22;10407070;28;20534;-64
2024/04/05 18:29:22;;;;;;;1.30;0.70;;;;;;;17.98;46.41;99599.13;10410574;28;20056;-65
2024/04/05 18:34:23;;;;;;;1.02;0.45;;;;;;;17.74;47.21;99599.63;10427822;28;20493;-65
2024/04/05 18:39:24;;;;;;;0.68;0.60;;;;;;;17.84;46.84;99611.03;10409415;28;20053;-65
2024/04/05 18:44:33;;;;;;;1.27;0.45;;;;;;;17.82;47.27;99617.44;10425607;28;20082;-64
2024/04/05 18:49:36;;;;;;;2.57;1.20;;;;;;;17.90;47.30;99616.69;10424673;28;20373;-64
2024/04/05 18:54:38;;;;;;;1.42;0.95;;;;;;;17.88;47.35;99631.88;10429352;28;20385;-64
2024/04/05 18:59:39;;;;;;;0.98;0.77;;;;;;;17.83;47.25;99630.50;10434092;28;20053;-65
2024/04/05 19:04:40;;;;;;;1.40;0.73;;;;;;;17.82;47.70;99625.38;10433420;28;20041;-65
2024/04/05 19:09:41;;;;;;;1.52;0.85;;;;;;;17.90;47.28;99620.19;10433662;28;20123;-64
2024/04/05 19:14:43;;;;;;;1.05;0.68;;;;;;;17.88;47.75;99626.59;10432649;28;20144;-65
2024/04/05 19:19:44;;;;;;;2.55;1.00;;;;;;;17.82;47.72;99634.13;10426867;28;20481;-65
2024/04/05 19:24:47;;;;;;;3.10;1.35;;;;;;;17.87;47.92;99640.81;10403862;28;20133;-64
2024/04/05 19:29:50;;;;;;;0.98;0.77;;;;;;;17.77;47.91;99641.66;10414344;28;20043;-65
2024/04/05 19:34:51;;;;;;;8.30;1.45;;;;;;;17.63;48.05;99644.75;10412325;28;20045;-64
2024/04/05 19:39:57;;;;;;;1.45;0.70;;;;;;;17.46;48.49;99653.44;10412853;28;20049;-64
2024/04/05 19:44:58;;;;;;;0.95;0.73;;;;;;;17.41;48.38;99649.53;10417451;28;20042;-64
2024/04/05 19:49:59;;;;;;;1.58;0.85;;;;;;;17.29;48.94;99654.13;10388012;28;20049;-63
2024/04/05 19:55:00;;;;;;;0.95;0.80;;;;;;;17.32;48.65;99659.16;10383850;28;20038;-63
2024/04/05 20:00:01;;;;;;;2.40;0.70;;;;;;;17.32;48.38;99658.31;10420820;28;20046;-62
2024/04/05 20:05:02;;;;;;;3.92;0.82;;;;;;;17.26;48.32;99667.59;10387996;28;20041;-62
2024/04/05 20:10:05;;;;;;;2.13;0.80;;;;;;;17.29;48.28;99664.69;10388940;28;20830;-62
2024/04/05 20:15:06;;;;;;;0.95;0.80;;;;;;;17.25;48.34;99676.53;10388708;28;20620;-63
2024/04/05 20:20:08;;;;;;;0.93;0.70;;;;;;;17.15;48.44;99680.97;10389393;28;20055;-63
2024/04/05 20:25:09;;;;;;;1.80;0.80;;;;;;;17.03;48.77;99675.00;10369922;28;20435;-63
2024/04/05 20:35:34;;;;;;;2.90;0.90;;;;;;;16.95;48.73;99695.16;10387806;28;20502;-63
2024/04/05 20:40:35;;;;;;;1.52;1.05;;;;;;;16.90;49.42;99702.66;10388522;28;20046;-63
2024/04/05 20:45:37;;;;;;;0.98;0.77;;;;;;;16.69;49.75;99700.09;10387222;28;20057;-63
2024/04/05 20:50:38;;;;;;;1.80;0.80;;;;;;;16.83;49.47;99712.09;10388850;28;20497;-63
2024/04/05 20:55:42;;;;;;;2.05;1.08;;;;;;;16.79;50.12;99718.63;10386094;28;20053;-63
2024/04/05 21:00:43;;;;;;;1.33;0.90;;;;;;;16.77;50.11;99717.94;10386595;28;20057;-63
2024/04/05 21:05:44;;;;;;;1.90;1.10;;;;;;;16.59;50.85;99725.66;10380796;28;20517;-63
2024/04/05 21:10:45;;;;;;;3.55;1.20;;;;;;;16.59;50.78;99728.28;10370281;28;20470;-63
2024/04/05 21:15:46;;;;;;;3.38;1.20;;;;;;;16.46;51.74;99718.94;10369608;28;20049;-63
2024/04/05 21:20:51;;;;;;;1.20;0.90;;;;;;;16.28;52.43;99721.34;10386656;28;20394;-63
2024/04/05 21:25:56;;;;;;;1.48;1.10;;;;;;;16.19;54.51;99727.41;10389396;28;20037;-62
2024/04/05 21:30:58;;;;;;;2.17;1.08;;;;;;;16.00;55.59;99727.31;10372653;28;20050;-62
2024/04/05 21:35:59;;;;;;;1.73;1.15;;;;;;;16.00;54.60;99738.69;10390604;28;20044;-62
2024/04/05 21:41:03;;;;;;;1.75;1.17;;;;;;;15.96;55.11;99732.00;10389799;28;20045;-62
2024/04/05 21:46:05;;;;;;;6.18;2.42;;;;;;;16.08;54.39;99733.59;10357319;28;20530;-61
2024/04/05 21:51:07;;;;;;;4.60;1.65;;;;;;;16.06;54.55;99730.25;10390014;28;20044;-63
2024/04/05 21:56:08;;;;;;;5.70;2.45;;;;;;;16.12;54.65;99737.66;10374022;28;20049;-63
2024/04/05 22:01:09;;;;;;;11.95;3.97;;;;;;;16.16;54.44;99746.16;10389591;28;20500;-63
2024/04/05 22:06:10;;;;;;;5.38;1.98;;;;;;;16.21;54.73;99744.78;10372164;28;20052;-62
2024/04/05 22:11:11;;;;;;;6.57;2.80;;;;;;;16.30;54.60;99742.34;10360875;28;20563;-62
2024/04/05 22:16:13;;;;;;;5.18;2.55;;;;;;;16.39;54.86;99750.28;10373195;28;20045;-62
2024/04/05 22:21:14;;;;;;;2.20;1.30;;;;;;;16.41;55.25;99753.63;10390029;28;20049;-62
2024/04/05 22:26:15;;;;;;;5.93;2.17;;;;;;;16.45;54.87;99756.84;10389881;28;20048;-62
2024/04/05 22:31:16;;;;;;;5.38;2.22;;;;;;;16.48;54.93;99751.31;10403004;28;20556;-62
2024/04/05 22:36:17;;;;;;;3.95;1.77;;;;;;;16.42;55.68;99749.19;10403891;28;20050;-62
2024/04/05 22:41:18;;;;;;;3.85;1.25;;;;;;;16.42;55.58;99746.53;10403014;28;20053;-63
2024/04/05 22:46:19;;;;;;;0.73;0.73;;;;;;;16.39;56.06;99749.44;10402183;28;20049;-63
2024/04/05 22:51:20;;;;;;;5.55;2.15;;;;;;;16.00;56.89;99753.69;10403061;28;20037;-63
2024/04/05 22:56:21;;;;;;;1.90;1.00;;;;;;;15.77;57.37;99747.75;10402921;28;20136;-63
2024/04/05 23:01:22;;;;;;;1.98;0.88;;;;;;;15.76;57.73;99740.78;10402686;28;20045;-62
2024/04/05 23:06:23;;;;;;;1.98;1.20;;;;;;;15.60;58.20;99726.38;10386418;28;20099;-63
2024/04/05 23:11:24;;;;;;;3.15;1.60;;;;;;;15.60;58.27;99739.53;10385913;28;20045;-63
2024/04/05 23:16:25;;;;;;;3.33;1.30;;;;;;;15.66;58.74;99750.44;10402248;28;20162;-63
2024/04/05 23:21:26;;;;;;;3.50;1.20;;;;;;;15.67;59.27;99757.38;10356476;28;20561;-63
2024/04/05 23:26:27;;;;;;;2.13;1.45;;;;;;;15.71;59.22;99765.88;10402497;28;20374;-62